Hauptseite
METAR-TAF:

METAR-TAF

Flughäfen :

Flughafen Port Said

Port Said, Ägypten

Breite: 31-16N, Länge: 032-18E, Höhe: 6 m

Beobachtung

Neuester Wetterbericht von vor 43 Minuten, um 13:00 UTC
Wind 11 kt aus Ost/Nordost
Temperatur 25°C
Luftfeuchtigkeit 74%
Luftdruck 1014 hPa
Sichtweite 10 km oder mehr
keine Wolken unter 1500 m und keine Kumulonimbus oder Gewitterwolken

METAR: HEPS 231300Z 06011KT CAVOK 25/20 Q1014 NOSIG

Zeit: 15:43 (13:43 UTC)

Prognose

Neuester Wetterbericht von vor 2 Stunden und 43 Minuten, um 11:00 UTC
Gültige Prognose vom 23 um 12 UTC bis 24 um 18 UTC
Wind 13 kt aus Ost
Sichtweite 10 km oder mehr
keine Wolken unter 1500 m und keine Kumulonimbus oder Gewitterwolken

TAF: HEPS 231100Z 2312/2418 08013KT CAVOK

Wetterbeobachtungen und Prognosen von mehr als 4000 Flughäfen (METAR und TAF Bericht).

Die verfügbaren Stationen werden durch gelbe und rote Markierungen auf der Karte dargestellt.

Führen Sie die Maus auf sie, um den Namen der Station zu sehen.

Darauf klicken, um die Beobachtung von Wetterbeobachtungen und Prognosen zu sehen.

Um die Karte zu ändern : klicken Sie auf den grünen Tasten mit einem schwarzen Kreuz Zum Vergrößern, auf den grünen Button mit einem Gedankenstrich zu verkleinern, oder auf die grünen Pfeile für benachbarte Karten.


METAR-TAF: